Thiensville, WI (53097)

1:17 PM CDT on March 29, 2015 (GMT -0500)
Concordia University Wisconsin | | Change Station
CLOSE
Current Station
Personal Weather Station
Location: Mequon, WI
Elevation: 692 ft
Nearby Weather Stations

Elev 692 ft 43.25 °N, 87.92 °W | Updated 7 seconds ago

Overcast
Overcast
34.1 °F
Feels Like 25 °F
N
12.0
Wind Variable Wind from South
Gusts 31.0 mph

Today
High -- | Low -- °F
--% Chance of Precip.
Yesterday
High -- | Low -- °F
Precip. -- in
6:39 AM 7:14 PM
Waxing Gibbous, 73% visible
Pressure 29.81 in
Visibility 1.5 miles
Clouds Overcast 1800 ft
Windchill 25 °F
Dew Point 31 °F
Humidity 89%
Rainfall 0.07 in
Snow Depth Not available.
UV 2 out of 12
Pollen 3.50 out of 12
Air Quality Not available.
Flu Activity Not available.
METAR KMWC 291745Z AUTO 20023G30KT 1 1/2SM -RA BR OVC018 01/M02 A2981

More Conditions Fewer Conditions

Pressure 29.81 in
Visibility 1.5 miles
Clouds Overcast 1800 ft
Windchill 25 °F
Dew Point 31 °F
Humidity 89%
Rainfall 0.07 in
Snow Depth Not available.
UV 2 out of 12
Pollen 3.50 out of 12
Air Quality Not available.
Flu Activity Not available.
METAR KMWC 291745Z AUTO 20023G30KT 1 1/2SM -RA BR OVC018 01/M02 A2981

More Conditions Fewer Conditions

10-Day Weather Forecast

Almanac

Astronomy

Mar. 29, 2015 Rise Set
Actual Time
Civil Twilight
Nautical Twilight
Astronomical Twilight
Moon
Length of Visible Light
Length of Day
Tomorrow will be .
, % of the Moon is Illuminated

Today's Extremes

State Highs State Lows

Community

WunderPhotos

Upload Photos

1,809,316 photos uploaded!

WunderBlogs® & News

Nearby

Air Quality

  Air Quality AQ Index Pollutant
Not available.

Snow Depth

Station Depth Elevation

Earthquake Activity

City Distance Mag. Time & Date
Minimum magnitude displayed is 2.5.

Coastal Water Temperatures

Place Temperature

Stations

Nearby Weather Stations

Station Location Temp. Windchill Dew Point Humidity Wind Precip. Elev Updated Type